sensor_id;sensor_type;location;lat;lon;timestamp;temperature;humidity
57088;DHT22;42965;52.846;6.614;2023-11-21T00:02:22;8.80;99.90
57088;DHT22;42965;52.846;6.614;2023-11-21T00:04:48;8.80;99.90
57088;DHT22;42965;52.846;6.614;2023-11-21T00:07:14;8.80;99.90
57088;DHT22;42965;52.846;6.614;2023-11-21T00:09:44;8.80;99.90
57088;DHT22;42965;52.846;6.614;2023-11-21T00:12:11;8.90;99.90
57088;DHT22;42965;52.846;6.614;2023-11-21T00:14:38;8.90;99.90
57088;DHT22;42965;52.846;6.614;2023-11-21T00:17:07;8.90;99.90
57088;DHT22;42965;52.846;6.614;2023-11-21T00:19:37;8.90;99.90
57088;DHT22;42965;52.846;6.614;2023-11-21T00:22:03;8.90;99.90
57088;DHT22;42965;52.846;6.614;2023-11-21T00:24:30;9.00;99.90
57088;DHT22;42965;52.846;6.614;2023-11-21T00:26:58;9.00;99.90
57088;DHT22;42965;52.846;6.614;2023-11-21T00:29:25;9.00;99.90
57088;DHT22;42965;52.846;6.614;2023-11-21T00:31:55;9.00;99.90
57088;DHT22;42965;52.846;6.614;2023-11-21T00:34:22;9.00;99.90
57088;DHT22;42965;52.846;6.614;2023-11-21T00:36:48;9.00;99.90
57088;DHT22;42965;52.846;6.614;2023-11-21T00:39:15;9.00;99.90
57088;DHT22;42965;52.846;6.614;2023-11-21T00:41:42;9.00;99.90
57088;DHT22;42965;52.846;6.614;2023-11-21T00:44:08;9.00;99.90
57088;DHT22;42965;52.846;6.614;2023-11-21T00:46:34;9.00;99.90
57088;DHT22;42965;52.846;6.614;2023-11-21T00:49:01;9.00;99.90
57088;DHT22;42965;52.846;6.614;2023-11-21T00:51:27;9.00;99.90
57088;DHT22;42965;52.846;6.614;2023-11-21T00:53:53;9.00;99.90
57088;DHT22;42965;52.846;6.614;2023-11-21T00:56:20;9.00;99.90
57088;DHT22;42965;52.846;6.614;2023-11-21T00:58:46;9.00;99.90
57088;DHT22;42965;52.846;6.614;2023-11-21T01:01:16;9.00;99.90
57088;DHT22;42965;52.846;6.614;2023-11-21T01:03:42;9.00;99.90
57088;DHT22;42965;52.846;6.614;2023-11-21T01:06:09;9.00;99.90
57088;DHT22;42965;52.846;6.614;2023-11-21T01:08:35;9.00;99.90
57088;DHT22;42965;52.846;6.614;2023-11-21T01:11:02;9.00;99.90
57088;DHT22;42965;52.846;6.614;2023-11-21T01:13:28;9.10;99.90
57088;DHT22;42965;52.846;6.614;2023-11-21T01:15:56;9.00;99.90
57088;DHT22;42965;52.846;6.614;2023-11-21T01:18:22;9.10;99.90
57088;DHT22;42965;52.846;6.614;2023-11-21T01:20:51;9.00;99.90
57088;DHT22;42965;52.846;6.614;2023-11-21T01:23:19;9.00;99.90
57088;DHT22;42965;52.846;6.614;2023-11-21T01:25:46;9.00;99.90
57088;DHT22;42965;52.846;6.614;2023-11-21T01:28:13;9.10;99.90
57088;DHT22;42965;52.846;6.614;2023-11-21T01:30:39;9.10;99.90
57088;DHT22;42965;52.846;6.614;2023-11-21T01:33:05;9.10;99.90
57088;DHT22;42965;52.846;6.614;2023-11-21T01:35:31;9.10;99.90
57088;DHT22;42965;52.846;6.614;2023-11-21T01:37:58;9.10;99.90
57088;DHT22;42965;52.846;6.614;2023-11-21T01:40:24;9.10;99.90
57088;DHT22;42965;52.846;6.614;2023-11-21T01:42:52;9.10;99.90
57088;DHT22;42965;52.846;6.614;2023-11-21T01:45:19;9.10;99.90
57088;DHT22;42965;52.846;6.614;2023-11-21T01:47:46;9.10;99.90
57088;DHT22;42965;52.846;6.614;2023-11-21T01:50:15;9.10;99.90
57088;DHT22;42965;52.846;6.614;2023-11-21T01:52:45;9.20;99.90
57088;DHT22;42965;52.846;6.614;2023-11-21T01:55:11;9.10;99.90
57088;DHT22;42965;52.846;6.614;2023-11-21T01:57:40;9.20;99.90
57088;DHT22;42965;52.846;6.614;2023-11-21T02:00:09;9.10;99.90
57088;DHT22;42965;52.846;6.614;2023-11-21T02:02:44;9.20;99.90
57088;DHT22;42965;52.846;6.614;2023-11-21T02:05:12;9.20;99.90
57088;DHT22;42965;52.846;6.614;2023-11-21T02:07:40;9.20;99.90
57088;DHT22;42965;52.846;6.614;2023-11-21T02:10:07;9.20;99.90
57088;DHT22;42965;52.846;6.614;2023-11-21T02:12:35;9.10;99.90
57088;DHT22;42965;52.846;6.614;2023-11-21T02:15:03;9.20;99.90
57088;DHT22;42965;52.846;6.614;2023-11-21T02:17:36;9.10;99.90
57088;DHT22;42965;52.846;6.614;2023-11-21T02:20:03;9.10;99.90
57088;DHT22;42965;52.846;6.614;2023-11-21T02:22:35;9.10;99.90
57088;DHT22;42965;52.846;6.614;2023-11-21T02:25:04;9.10;99.90
57088;DHT22;42965;52.846;6.614;2023-11-21T02:27:31;9.10;99.90
57088;DHT22;42965;52.846;6.614;2023-11-21T02:29:58;9.10;99.90
57088;DHT22;42965;52.846;6.614;2023-11-21T02:32:24;9.10;99.90
57088;DHT22;42965;52.846;6.614;2023-11-21T02:34:52;9.10;99.90
57088;DHT22;42965;52.846;6.614;2023-11-21T02:37:21;9.10;99.90
57088;DHT22;42965;52.846;6.614;2023-11-21T02:39:48;9.10;99.90
57088;DHT22;42965;52.846;6.614;2023-11-21T02:42:14;9.10;99.90
57088;DHT22;42965;52.846;6.614;2023-11-21T02:44:40;9.10;99.90
57088;DHT22;42965;52.846;6.614;2023-11-21T02:47:07;9.10;99.90
57088;DHT22;42965;52.846;6.614;2023-11-21T02:49:34;9.10;99.90
57088;DHT22;42965;52.846;6.614;2023-11-21T02:52:02;9.10;99.90
57088;DHT22;42965;52.846;6.614;2023-11-21T02:54:28;9.10;99.90
57088;DHT22;42965;52.846;6.614;2023-11-21T02:56:55;9.10;99.90
57088;DHT22;42965;52.846;6.614;2023-11-21T02:59:21;9.10;99.90
57088;DHT22;42965;52.846;6.614;2023-11-21T03:01:47;9.10;99.90
57088;DHT22;42965;52.846;6.614;2023-11-21T03:04:15;9.10;99.90
57088;DHT22;42965;52.846;6.614;2023-11-21T03:06:44;9.10;99.90
57088;DHT22;42965;52.846;6.614;2023-11-21T03:09:11;9.10;99.90
57088;DHT22;42965;52.846;6.614;2023-11-21T03:11:38;9.10;99.90
57088;DHT22;42965;52.846;6.614;2023-11-21T03:14:05;9.20;99.90
57088;DHT22;42965;52.846;6.614;2023-11-21T03:16:35;9.10;99.90
57088;DHT22;42965;52.846;6.614;2023-11-21T03:19:01;9.20;99.90
57088;DHT22;42965;52.846;6.614;2023-11-21T03:21:28;9.20;99.90
57088;DHT22;42965;52.846;6.614;2023-11-21T03:23:55;9.20;99.90
57088;DHT22;42965;52.846;6.614;2023-11-21T03:26:21;9.20;99.90
57088;DHT22;42965;52.846;6.614;2023-11-21T03:28:47;9.20;99.90
57088;DHT22;42965;52.846;6.614;2023-11-21T03:31:15;9.20;99.90
57088;DHT22;42965;52.846;6.614;2023-11-21T03:33:43;9.20;99.90
57088;DHT22;42965;52.846;6.614;2023-11-21T03:36:09;9.20;99.90
57088;DHT22;42965;52.846;6.614;2023-11-21T03:38:36;9.20;99.90
57088;DHT22;42965;52.846;6.614;2023-11-21T03:41:02;9.20;99.90
57088;DHT22;42965;52.846;6.614;2023-11-21T03:43:29;9.20;99.90
57088;DHT22;42965;52.846;6.614;2023-11-21T03:45:55;9.20;99.90
57088;DHT22;42965;52.846;6.614;2023-11-21T03:48:21;9.20;99.90
57088;DHT22;42965;52.846;6.614;2023-11-21T03:50:47;9.20;99.90
57088;DHT22;42965;52.846;6.614;2023-11-21T03:53:14;9.20;99.90
57088;DHT22;42965;52.846;6.614;2023-11-21T03:55:40;9.20;99.90
57088;DHT22;42965;52.846;6.614;2023-11-21T03:58:06;9.20;99.90
57088;DHT22;42965;52.846;6.614;2023-11-21T04:00:32;9.20;99.90
57088;DHT22;42965;52.846;6.614;2023-11-21T04:02:58;9.20;99.90
57088;DHT22;42965;52.846;6.614;2023-11-21T04:05:25;9.20;99.90
57088;DHT22;42965;52.846;6.614;2023-11-21T04:07:51;9.20;99.90
57088;DHT22;42965;52.846;6.614;2023-11-21T04:10:18;9.20;99.90
57088;DHT22;42965;52.846;6.614;2023-11-21T04:12:44;9.20;99.90
57088;DHT22;42965;52.846;6.614;2023-11-21T04:15:12;9.20;99.90
57088;DHT22;42965;52.846;6.614;2023-11-21T04:17:41;9.20;99.90
57088;DHT22;42965;52.846;6.614;2023-11-21T04:20:08;9.20;99.90
57088;DHT22;42965;52.846;6.614;2023-11-21T04:22:42;9.20;99.90
57088;DHT22;42965;52.846;6.614;2023-11-21T04:25:14;9.10;99.90
57088;DHT22;42965;52.846;6.614;2023-11-21T04:27:41;9.10;99.90
57088;DHT22;42965;52.846;6.614;2023-11-21T04:30:14;9.10;99.90
57088;DHT22;42965;52.846;6.614;2023-11-21T04:32:42;9.20;99.90
57088;DHT22;42965;52.846;6.614;2023-11-21T04:35:08;9.10;99.90
57088;DHT22;42965;52.846;6.614;2023-11-21T04:37:35;9.10;99.90
57088;DHT22;42965;52.846;6.614;2023-11-21T04:40:02;9.10;99.90
57088;DHT22;42965;52.846;6.614;2023-11-21T04:42:35;9.10;99.90
57088;DHT22;42965;52.846;6.614;2023-11-21T04:45:04;9.10;99.90
57088;DHT22;42965;52.846;6.614;2023-11-21T04:47:34;9.10;99.90
57088;DHT22;42965;52.846;6.614;2023-11-21T04:50:02;9.10;99.90
57088;DHT22;42965;52.846;6.614;2023-11-21T04:52:29;9.10;99.90
57088;DHT22;42965;52.846;6.614;2023-11-21T04:54:55;9.10;99.90
57088;DHT22;42965;52.846;6.614;2023-11-21T04:57:24;9.00;99.90
57088;DHT22;42965;52.846;6.614;2023-11-21T04:59:51;9.00;99.90
57088;DHT22;42965;52.846;6.614;2023-11-21T05:02:17;9.00;99.90
57088;DHT22;42965;52.846;6.614;2023-11-21T05:04:45;9.00;99.90
57088;DHT22;42965;52.846;6.614;2023-11-21T05:07:12;9.00;99.90
57088;DHT22;42965;52.846;6.614;2023-11-21T05:09:44;9.00;99.90
57088;DHT22;42965;52.846;6.614;2023-11-21T05:12:12;9.00;99.90
57088;DHT22;42965;52.846;6.614;2023-11-21T05:14:39;9.00;99.90
57088;DHT22;42965;52.846;6.614;2023-11-21T05:17:06;9.00;99.90
57088;DHT22;42965;52.846;6.614;2023-11-21T05:19:34;9.00;99.90
57088;DHT22;42965;52.846;6.614;2023-11-21T05:22:01;9.00;99.90
57088;DHT22;42965;52.846;6.614;2023-11-21T05:24:28;9.00;99.90
57088;DHT22;42965;52.846;6.614;2023-11-21T05:26:54;9.10;99.90
57088;DHT22;42965;52.846;6.614;2023-11-21T05:29:22;9.00;99.90
57088;DHT22;42965;52.846;6.614;2023-11-21T05:31:48;9.00;99.90
57088;DHT22;42965;52.846;6.614;2023-11-21T05:34:16;9.10;99.90
57088;DHT22;42965;52.846;6.614;2023-11-21T05:36:43;9.20;99.90
57088;DHT22;42965;52.846;6.614;2023-11-21T05:39:14;9.20;99.90
57088;DHT22;42965;52.846;6.614;2023-11-21T05:41:43;9.10;99.90
57088;DHT22;42965;52.846;6.614;2023-11-21T05:44:09;9.10;99.90
57088;DHT22;42965;52.846;6.614;2023-11-21T05:46:39;9.10;99.90
57088;DHT22;42965;52.846;6.614;2023-11-21T05:49:05;9.10;99.90
57088;DHT22;42965;52.846;6.614;2023-11-21T05:51:34;9.10;99.90
57088;DHT22;42965;52.846;6.614;2023-11-21T05:54:03;9.10;99.90
57088;DHT22;42965;52.846;6.614;2023-11-21T05:56:29;9.10;99.90
57088;DHT22;42965;52.846;6.614;2023-11-21T05:58:58;9.10;99.90
57088;DHT22;42965;52.846;6.614;2023-11-21T06:01:26;9.10;99.90
57088;DHT22;42965;52.846;6.614;2023-11-21T06:03:54;9.10;99.90
57088;DHT22;42965;52.846;6.614;2023-11-21T06:06:23;9.20;99.90
57088;DHT22;42965;52.846;6.614;2023-11-21T06:08:50;9.10;99.90
57088;DHT22;42965;52.846;6.614;2023-11-21T06:11:17;9.10;99.90
57088;DHT22;42965;52.846;6.614;2023-11-21T06:13:44;9.20;99.90
57088;DHT22;42965;52.846;6.614;2023-11-21T06:16:10;9.20;99.90
57088;DHT22;42965;52.846;6.614;2023-11-21T06:18:37;9.20;99.90
57088;DHT22;42965;52.846;6.614;2023-11-21T06:21:03;9.10;99.90
57088;DHT22;42965;52.846;6.614;2023-11-21T06:23:30;9.10;99.90
57088;DHT22;42965;52.846;6.614;2023-11-21T06:25:57;9.10;99.90
57088;DHT22;42965;52.846;6.614;2023-11-21T06:28:23;9.10;99.90
57088;DHT22;42965;52.846;6.614;2023-11-21T06:30:49;9.10;99.90
57088;DHT22;42965;52.846;6.614;2023-11-21T06:33:16;9.10;99.90
57088;DHT22;42965;52.846;6.614;2023-11-21T06:35:44;9.10;99.90
57088;DHT22;42965;52.846;6.614;2023-11-21T06:38:10;9.10;99.90
57088;DHT22;42965;52.846;6.614;2023-11-21T06:40:37;9.10;99.90
57088;DHT22;42965;52.846;6.614;2023-11-21T06:43:04;9.10;99.90
57088;DHT22;42965;52.846;6.614;2023-11-21T06:45:33;9.20;99.90
57088;DHT22;42965;52.846;6.614;2023-11-21T06:48:00;9.10;99.90
57088;DHT22;42965;52.846;6.614;2023-11-21T06:50:26;9.10;99.90
57088;DHT22;42965;52.846;6.614;2023-11-21T06:52:52;9.20;99.90
57088;DHT22;42965;52.846;6.614;2023-11-21T06:55:19;9.10;99.90
57088;DHT22;42965;52.846;6.614;2023-11-21T06:57:45;9.10;99.90
57088;DHT22;42965;52.846;6.614;2023-11-21T07:00:15;9.20;99.90
57088;DHT22;42965;52.846;6.614;2023-11-21T07:02:41;9.20;99.90
57088;DHT22;42965;52.846;6.614;2023-11-21T07:05:08;9.20;99.90
57088;DHT22;42965;52.846;6.614;2023-11-21T07:07:34;9.20;99.90
57088;DHT22;42965;52.846;6.614;2023-11-21T07:10:02;9.20;99.90
57088;DHT22;42965;52.846;6.614;2023-11-21T07:12:35;9.20;99.90
57088;DHT22;42965;52.846;6.614;2023-11-21T07:15:01;9.20;99.90
57088;DHT22;42965;52.846;6.614;2023-11-21T07:17:28;9.20;99.90
57088;DHT22;42965;52.846;6.614;2023-11-21T07:19:54;9.30;99.90
57088;DHT22;42965;52.846;6.614;2023-11-21T07:22:21;9.30;99.90
57088;DHT22;42965;52.846;6.614;2023-11-21T07:24:50;9.30;99.90
57088;DHT22;42965;52.846;6.614;2023-11-21T07:27:17;9.30;99.90
57088;DHT22;42965;52.846;6.614;2023-11-21T07:29:43;9.30;99.90
57088;DHT22;42965;52.846;6.614;2023-11-21T07:32:09;9.30;99.90
57088;DHT22;42965;52.846;6.614;2023-11-21T07:34:36;9.30;99.90
57088;DHT22;42965;52.846;6.614;2023-11-21T07:37:03;9.30;99.90
57088;DHT22;42965;52.846;6.614;2023-11-21T07:39:29;9.30;99.90
57088;DHT22;42965;52.846;6.614;2023-11-21T07:41:56;9.20;99.90
57088;DHT22;42965;52.846;6.614;2023-11-21T07:44:24;9.30;99.90
57088;DHT22;42965;52.846;6.614;2023-11-21T07:46:50;9.20;99.90
57088;DHT22;42965;52.846;6.614;2023-11-21T07:49:17;9.20;99.90
57088;DHT22;42965;52.846;6.614;2023-11-21T07:51:46;9.30;99.90
57088;DHT22;42965;52.846;6.614;2023-11-21T07:54:12;9.30;99.90
57088;DHT22;42965;52.846;6.614;2023-11-21T07:56:38;9.30;99.90
57088;DHT22;42965;52.846;6.614;2023-11-21T07:59:05;9.40;99.90
57088;DHT22;42965;52.846;6.614;2023-11-21T08:01:31;9.40;99.90
57088;DHT22;42965;52.846;6.614;2023-11-21T08:03:57;9.40;99.90
57088;DHT22;42965;52.846;6.614;2023-11-21T08:06:27;9.40;99.90
57088;DHT22;42965;52.846;6.614;2023-11-21T08:08:54;9.40;99.90
57088;DHT22;42965;52.846;6.614;2023-11-21T08:11:20;9.40;99.90
57088;DHT22;42965;52.846;6.614;2023-11-21T08:13:47;9.50;99.90
57088;DHT22;42965;52.846;6.614;2023-11-21T08:16:14;9.50;99.90
57088;DHT22;42965;52.846;6.614;2023-11-21T08:18:41;9.50;99.90
57088;DHT22;42965;52.846;6.614;2023-11-21T08:21:07;9.60;99.90
57088;DHT22;42965;52.846;6.614;2023-11-21T08:23:34;9.60;99.90
57088;DHT22;42965;52.846;6.614;2023-11-21T08:26:01;9.60;99.90
57088;DHT22;42965;52.846;6.614;2023-11-21T08:28:29;9.60;99.90
57088;DHT22;42965;52.846;6.614;2023-11-21T08:30:56;9.60;99.90
57088;DHT22;42965;52.846;6.614;2023-11-21T08:33:22;9.70;99.90
57088;DHT22;42965;52.846;6.614;2023-11-21T08:35:48;9.70;99.90
57088;DHT22;42965;52.846;6.614;2023-11-21T08:38:15;9.70;99.90
57088;DHT22;42965;52.846;6.614;2023-11-21T08:40:42;9.70;99.90
57088;DHT22;42965;52.846;6.614;2023-11-21T08:43:08;9.70;99.90
57088;DHT22;42965;52.846;6.614;2023-11-21T08:45:34;9.70;99.90
57088;DHT22;42965;52.846;6.614;2023-11-21T08:48:01;9.70;99.90
57088;DHT22;42965;52.846;6.614;2023-11-21T08:50:28;9.70;99.90
57088;DHT22;42965;52.846;6.614;2023-11-21T08:52:54;9.70;99.90
57088;DHT22;42965;52.846;6.614;2023-11-21T08:55:20;9.60;99.90
57088;DHT22;42965;52.846;6.614;2023-11-21T08:57:46;9.60;99.90
57088;DHT22;42965;52.846;6.614;2023-11-21T09:00:13;9.60;99.90
57088;DHT22;42965;52.846;6.614;2023-11-21T09:02:42;9.50;99.90
57088;DHT22;42965;52.846;6.614;2023-11-21T09:05:10;9.50;99.90
57088;DHT22;42965;52.846;6.614;2023-11-21T09:07:40;9.40;99.90
57088;DHT22;42965;52.846;6.614;2023-11-21T09:10:10;9.40;99.90
57088;DHT22;42965;52.846;6.614;2023-11-21T09:12:37;9.30;99.90
57088;DHT22;42965;52.846;6.614;2023-11-21T09:15:07;9.30;99.90
57088;DHT22;42965;52.846;6.614;2023-11-21T09:17:35;9.30;99.90
57088;DHT22;42965;52.846;6.614;2023-11-21T09:20:02;9.20;99.90
57088;DHT22;42965;52.846;6.614;2023-11-21T09:22:32;9.20;99.90
57088;DHT22;42965;52.846;6.614;2023-11-21T09:24:58;9.20;99.90
57088;DHT22;42965;52.846;6.614;2023-11-21T09:27:25;9.20;99.90
57088;DHT22;42965;52.846;6.614;2023-11-21T09:29:54;9.20;99.90
57088;DHT22;42965;52.846;6.614;2023-11-21T09:32:21;9.20;99.90
57088;DHT22;42965;52.846;6.614;2023-11-21T09:34:54;9.20;99.90
57088;DHT22;42965;52.846;6.614;2023-11-21T09:37:24;9.10;99.90
57088;DHT22;42965;52.846;6.614;2023-11-21T09:39:51;9.20;99.90
57088;DHT22;42965;52.846;6.614;2023-11-21T09:42:23;9.20;99.90
57088;DHT22;42965;52.846;6.614;2023-11-21T09:45:32;9.20;99.90
57088;DHT22;42965;52.846;6.614;2023-11-21T09:48:00;9.20;99.90
57088;DHT22;42965;52.846;6.614;2023-11-21T09:50:27;9.20;99.90
57088;DHT22;42965;52.846;6.614;2023-11-21T09:55:43;9.20;99.90
57088;DHT22;42965;52.846;6.614;2023-11-21T09:58:11;9.20;99.90
57088;DHT22;42965;52.846;6.614;2023-11-21T10:00:45;9.20;99.90
57088;DHT22;42965;52.846;6.614;2023-11-21T10:03:14;9.10;99.90
57088;DHT22;42965;52.846;6.614;2023-11-21T10:05:45;9.10;99.90
57088;DHT22;42965;52.846;6.614;2023-11-21T10:08:12;9.10;99.90
57088;DHT22;42965;52.846;6.614;2023-11-21T10:10:43;9.10;99.90
57088;DHT22;42965;52.846;6.614;2023-11-21T10:13:14;9.10;99.90
57088;DHT22;42965;52.846;6.614;2023-11-21T10:15:43;9.10;99.90
57088;DHT22;42965;52.846;6.614;2023-11-21T10:18:15;9.10;99.90
57088;DHT22;42965;52.846;6.614;2023-11-21T10:20:42;9.10;99.90
57088;DHT22;42965;52.846;6.614;2023-11-21T10:23:09;9.10;99.90
57088;DHT22;42965;52.846;6.614;2023-11-21T10:25:37;9.10;99.90
57088;DHT22;42965;52.846;6.614;2023-11-21T10:28:04;9.10;99.90
57088;DHT22;42965;52.846;6.614;2023-11-21T10:30:34;9.10;99.90
57088;DHT22;42965;52.846;6.614;2023-11-21T10:33:05;9.10;99.90
57088;DHT22;42965;52.846;6.614;2023-11-21T10:35:46;9.20;99.90
57088;DHT22;42965;52.846;6.614;2023-11-21T10:38:17;9.20;99.90
57088;DHT22;42965;52.846;6.614;2023-11-21T10:40:44;9.20;99.90
57088;DHT22;42965;52.846;6.614;2023-11-21T10:43:12;9.20;99.90
57088;DHT22;42965;52.846;6.614;2023-11-21T10:45:43;9.10;99.90
57088;DHT22;42965;52.846;6.614;2023-11-21T10:48:12;9.20;99.90
57088;DHT22;42965;52.846;6.614;2023-11-21T10:50:41;9.20;99.90
57088;DHT22;42965;52.846;6.614;2023-11-21T10:53:08;9.20;99.90
57088;DHT22;42965;52.846;6.614;2023-11-21T10:55:34;9.20;99.90
57088;DHT22;42965;52.846;6.614;2023-11-21T10:58:02;9.20;99.90
57088;DHT22;42965;52.846;6.614;2023-11-21T11:00:31;9.20;99.90
57088;DHT22;42965;52.846;6.614;2023-11-21T11:02:58;9.20;99.90
57088;DHT22;42965;52.846;6.614;2023-11-21T11:05:28;9.10;99.90
57088;DHT22;42965;52.846;6.614;2023-11-21T11:08:00;9.10;99.90
57088;DHT22;42965;52.846;6.614;2023-11-21T11:10:30;9.00;99.90
57088;DHT22;42965;52.846;6.614;2023-11-21T11:12:57;8.90;99.90
57088;DHT22;42965;52.846;6.614;2023-11-21T11:15:25;8.90;99.90
57088;DHT22;42965;52.846;6.614;2023-11-21T11:17:52;8.90;99.90
57088;DHT22;42965;52.846;6.614;2023-11-21T11:20:27;8.90;99.90
57088;DHT22;42965;52.846;6.614;2023-11-21T11:28:33;9.20;99.90
57088;DHT22;42965;52.846;6.614;2023-11-21T11:38:52;10.60;99.90
57088;DHT22;42965;52.846;6.614;2023-11-21T11:41:30;10.70;99.90
57088;DHT22;42965;52.846;6.614;2023-11-21T11:43:59;10.50;99.90
57088;DHT22;42965;52.846;6.614;2023-11-21T11:46:43;10.50;99.90
57088;DHT22;42965;52.846;6.614;2023-11-21T11:49:24;10.50;99.90
57088;DHT22;42965;52.846;6.614;2023-11-21T11:52:31;10.40;99.90
57088;DHT22;42965;52.846;6.614;2023-11-21T11:55:00;10.40;99.90
57088;DHT22;42965;52.846;6.614;2023-11-21T11:57:33;10.40;99.90
57088;DHT22;42965;52.846;6.614;2023-11-21T12:00:10;10.40;99.90
57088;DHT22;42965;52.846;6.614;2023-11-21T12:02:41;10.40;99.90
57088;DHT22;42965;52.846;6.614;2023-11-21T12:05:11;10.30;99.90
57088;DHT22;42965;52.846;6.614;2023-11-21T12:07:46;10.30;99.90
57088;DHT22;42965;52.846;6.614;2023-11-21T12:10:16;10.20;99.90
57088;DHT22;42965;52.846;6.614;2023-11-21T12:12:45;10.10;99.90
57088;DHT22;42965;52.846;6.614;2023-11-21T12:15:12;10.00;99.90
57088;DHT22;42965;52.846;6.614;2023-11-21T12:17:41;9.90;99.90
57088;DHT22;42965;52.846;6.614;2023-11-21T12:20:08;9.80;99.90
57088;DHT22;42965;52.846;6.614;2023-11-21T12:22:48;9.70;99.90
57088;DHT22;42965;52.846;6.614;2023-11-21T12:25:19;9.70;99.90
57088;DHT22;42965;52.846;6.614;2023-11-21T12:27:48;9.60;99.90
57088;DHT22;42965;52.846;6.614;2023-11-21T12:30:20;9.60;99.90
57088;DHT22;42965;52.846;6.614;2023-11-21T12:32:52;9.60;99.90
57088;DHT22;42965;52.846;6.614;2023-11-21T12:35:19;9.70;99.90
57088;DHT22;42965;52.846;6.614;2023-11-21T12:37:46;9.70;99.90
57088;DHT22;42965;52.846;6.614;2023-11-21T12:40:13;9.80;99.90
57088;DHT22;42965;52.846;6.614;2023-11-21T12:42:42;9.80;99.90
57088;DHT22;42965;52.846;6.614;2023-11-21T12:45:20;9.90;99.90
57088;DHT22;42965;52.846;6.614;2023-11-21T12:47:48;9.90;99.90
57088;DHT22;42965;52.846;6.614;2023-11-21T12:50:25;10.00;99.90
57088;DHT22;42965;52.846;6.614;2023-11-21T12:52:59;10.20;99.90
57088;DHT22;42965;52.846;6.614;2023-11-21T12:55:26;10.30;99.90
57088;DHT22;42965;52.846;6.614;2023-11-21T12:57:53;10.40;99.90
57088;DHT22;42965;52.846;6.614;2023-11-21T13:00:37;10.60;99.90
57088;DHT22;42965;52.846;6.614;2023-11-21T13:03:05;10.80;99.90
57088;DHT22;42965;52.846;6.614;2023-11-21T13:05:34;11.00;99.90
57088;DHT22;42965;52.846;6.614;2023-11-21T13:08:03;11.50;99.90
57088;DHT22;42965;52.846;6.614;2023-11-21T13:10:35;12.50;99.90
57088;DHT22;42965;52.846;6.614;2023-11-21T13:13:04;13.40;99.90
57088;DHT22;42965;52.846;6.614;2023-11-21T13:15:40;13.60;99.90
57088;DHT22;42965;52.846;6.614;2023-11-21T13:18:09;13.10;99.90
57088;DHT22;42965;52.846;6.614;2023-11-21T13:20:37;12.80;99.90
57088;DHT22;42965;52.846;6.614;2023-11-21T13:23:08;12.10;99.90
57088;DHT22;42965;52.846;6.614;2023-11-21T13:25:34;11.90;99.90
57088;DHT22;42965;52.846;6.614;2023-11-21T13:28:02;11.70;99.90
57088;DHT22;42965;52.846;6.614;2023-11-21T13:30:29;11.30;99.90
57088;DHT22;42965;52.846;6.614;2023-11-21T13:33:03;11.10;99.90
57088;DHT22;42965;52.846;6.614;2023-11-21T13:35:38;10.90;99.90
57088;DHT22;42965;52.846;6.614;2023-11-21T13:38:10;10.70;99.90
57088;DHT22;42965;52.846;6.614;2023-11-21T13:40:37;10.50;99.90
57088;DHT22;42965;52.846;6.614;2023-11-21T13:43:13;10.40;99.90
57088;DHT22;42965;52.846;6.614;2023-11-21T13:45:43;10.40;99.90
57088;DHT22;42965;52.846;6.614;2023-11-21T13:48:10;10.50;99.90
57088;DHT22;42965;52.846;6.614;2023-11-21T13:50:40;10.60;99.90
57088;DHT22;42965;52.846;6.614;2023-11-21T13:53:14;10.90;99.90
57088;DHT22;42965;52.846;6.614;2023-11-21T13:55:54;11.30;99.90
57088;DHT22;42965;52.846;6.614;2023-11-21T13:58:21;11.40;99.90
57088;DHT22;42965;52.846;6.614;2023-11-21T14:01:03;11.40;99.90
57088;DHT22;42965;52.846;6.614;2023-11-21T14:03:32;11.80;99.90
57088;DHT22;42965;52.846;6.614;2023-11-21T14:06:18;11.70;99.90
57088;DHT22;42965;52.846;6.614;2023-11-21T14:08:51;11.80;99.90
57088;DHT22;42965;52.846;6.614;2023-11-21T14:11:18;12.00;99.90
57088;DHT22;42965;52.846;6.614;2023-11-21T14:13:48;12.20;99.90
57088;DHT22;42965;52.846;6.614;2023-11-21T14:16:15;12.30;99.90
57088;DHT22;42965;52.846;6.614;2023-11-21T14:18:43;11.90;99.90
57088;DHT22;42965;52.846;6.614;2023-11-21T14:21:21;11.50;99.90
57088;DHT22;42965;52.846;6.614;2023-11-21T14:23:47;11.00;99.90
57088;DHT22;42965;52.846;6.614;2023-11-21T14:26:14;10.70;99.90
57088;DHT22;42965;52.846;6.614;2023-11-21T14:28:42;10.40;99.90
57088;DHT22;42965;52.846;6.614;2023-11-21T14:31:08;10.20;99.90
57088;DHT22;42965;52.846;6.614;2023-11-21T14:33:41;10.00;99.90
57088;DHT22;42965;52.846;6.614;2023-11-21T14:36:08;9.80;99.90
57088;DHT22;42965;52.846;6.614;2023-11-21T14:38:36;9.80;99.90
57088;DHT22;42965;52.846;6.614;2023-11-21T14:41:06;9.60;99.90
57088;DHT22;42965;52.846;6.614;2023-11-21T14:43:38;9.50;99.90
57088;DHT22;42965;52.846;6.614;2023-11-21T14:46:05;9.40;99.90
57088;DHT22;42965;52.846;6.614;2023-11-21T14:48:36;9.30;99.90
57088;DHT22;42965;52.846;6.614;2023-11-21T14:51:09;9.20;99.90
57088;DHT22;42965;52.846;6.614;2023-11-21T14:53:41;9.10;99.90
57088;DHT22;42965;52.846;6.614;2023-11-21T14:56:30;9.10;99.90
57088;DHT22;42965;52.846;6.614;2023-11-21T14:58:59;9.00;99.90
57088;DHT22;42965;52.846;6.614;2023-11-21T15:01:38;8.90;99.90
57088;DHT22;42965;52.846;6.614;2023-11-21T15:04:22;9.00;99.90
57088;DHT22;42965;52.846;6.614;2023-11-21T15:07:05;8.90;99.90
57088;DHT22;42965;52.846;6.614;2023-11-21T15:09:32;8.90;99.90
57088;DHT22;42965;52.846;6.614;2023-11-21T15:12:02;8.80;99.90
57088;DHT22;42965;52.846;6.614;2023-11-21T15:14:46;8.80;99.90
57088;DHT22;42965;52.846;6.614;2023-11-21T15:17:15;8.80;99.90
57088;DHT22;42965;52.846;6.614;2023-11-21T15:19:48;8.70;99.90
57088;DHT22;42965;52.846;6.614;2023-11-21T15:22:16;8.70;99.90
57088;DHT22;42965;52.846;6.614;2023-11-21T15:24:43;8.70;99.90
57088;DHT22;42965;52.846;6.614;2023-11-21T15:27:13;8.70;99.90
57088;DHT22;42965;52.846;6.614;2023-11-21T15:29:40;8.70;99.90
57088;DHT22;42965;52.846;6.614;2023-11-21T15:32:07;8.70;99.90
57088;DHT22;42965;52.846;6.614;2023-11-21T15:34:35;8.60;99.90
57088;DHT22;42965;52.846;6.614;2023-11-21T15:37:02;8.60;99.90
57088;DHT22;42965;52.846;6.614;2023-11-21T15:39:29;8.60;99.90
57088;DHT22;42965;52.846;6.614;2023-11-21T15:41:58;8.60;99.90
57088;DHT22;42965;52.846;6.614;2023-11-21T15:44:26;8.60;99.90
57088;DHT22;42965;52.846;6.614;2023-11-21T15:46:53;8.50;99.90
57088;DHT22;42965;52.846;6.614;2023-11-21T15:49:20;8.50;99.90
57088;DHT22;42965;52.846;6.614;2023-11-21T15:51:49;8.40;99.90
57088;DHT22;42965;52.846;6.614;2023-11-21T15:54:26;8.40;99.90
57088;DHT22;42965;52.846;6.614;2023-11-21T15:56:53;8.20;99.90
57088;DHT22;42965;52.846;6.614;2023-11-21T15:59:23;8.10;99.90
57088;DHT22;42965;52.846;6.614;2023-11-21T16:01:53;8.00;99.90
57088;DHT22;42965;52.846;6.614;2023-11-21T16:04:19;7.90;99.90
57088;DHT22;42965;52.846;6.614;2023-11-21T16:06:48;7.90;99.90
57088;DHT22;42965;52.846;6.614;2023-11-21T16:09:14;7.80;99.90
57088;DHT22;42965;52.846;6.614;2023-11-21T16:12:06;7.80;99.90